Time;durP1;ratioP1;P1;durP2;ratioP2;P2;SDS_P1;SDS_P2;PMS_P1;PMS_P2;Temp;Humidity;BMP_temperature;BMP_pressure;BME280_temperature;BME280_humidity;BME280_pressure;Samples;Min_cycle;Max_cycle;Signal;HPM_P1;HPM_P2
2020/12/27 00:01:47;;;;;;;;;;;22.50;42.30;;;;;;1576614;74;1143;-59
2020/12/27 00:03:48;;;;;;;;;;;22.50;41.40;;;;;;1572092;74;718;-58
2020/12/27 00:05:50;;;;;;;;;;;22.60;41.20;;;;;;1581752;74;742;-58
2020/12/27 00:07:52;;;;;;;;;;;22.70;41.30;;;;;;1577980;74;748;-58
2020/12/27 00:09:54;;;;;;;;;;;22.60;41.10;;;;;;1586715;74;696;-58
2020/12/27 00:11:56;;;;;;;;;;;22.70;41.10;;;;;;1586680;74;1102;-57
2020/12/27 00:13:58;;;;;;;;;;;22.70;41.00;;;;;;1577361;74;680;-57
2020/12/27 00:16:00;;;;;;;;;;;22.70;40.80;;;;;;1575573;74;761;-59
2020/12/27 00:18:02;;;;;;;;;;;22.80;40.70;;;;;;1573027;74;698;-58
2020/12/27 00:20:04;;;;;;;;;;;22.80;40.50;;;;;;1573804;74;1068;-58
2020/12/27 00:22:06;;;;;;;;;;;22.90;40.60;;;;;;1576187;74;1193;-59
2020/12/27 00:24:08;;;;;;;;;;;22.90;40.60;;;;;;1577139;74;830;-58
2020/12/27 00:26:17;;;;;;;;;;;22.90;40.70;;;;;;1572188;74;682;-59
2020/12/27 00:28:19;;;;;;;;;;;22.80;40.50;;;;;;1583309;74;733;-58
2020/12/27 00:30:21;;;;;;;;;;;22.80;40.60;;;;;;1574943;74;735;-58
2020/12/27 00:32:24;;;;;;;;;;;22.80;40.60;;;;;;1576814;74;741;-58
2020/12/27 00:34:26;;;;;;;;;;;22.80;40.50;;;;;;1574360;74;1781;-58
2020/12/27 00:36:28;;;;;;;;;;;22.90;40.60;;;;;;1579395;74;779;-58
2020/12/27 00:38:30;;;;;;;;;;;22.90;40.60;;;;;;1577233;74;1939;-58
2020/12/27 00:40:32;;;;;;;;;;;22.90;40.50;;;;;;1572213;74;1140;-58
2020/12/27 00:42:33;;;;;;;;;;;22.90;40.60;;;;;;1575279;74;715;-58
2020/12/27 00:44:35;;;;;;;;;;;22.90;40.60;;;;;;1573296;74;708;-58
2020/12/27 00:46:37;;;;;;;;;;;22.90;40.50;;;;;;1578161;74;743;-58
2020/12/27 00:48:39;;;;;;;;;;;22.90;40.50;;;;;;1577386;74;741;-58
2020/12/27 00:50:41;;;;;;;;;;;22.90;40.50;;;;;;1575292;74;1204;-59
2020/12/27 00:52:43;;;;;;;;;;;22.90;40.40;;;;;;1576831;74;726;-58
2020/12/27 00:54:45;;;;;;;;;;;22.90;40.20;;;;;;1573279;74;687;-58
2020/12/27 00:56:50;;;;;;;;;;;22.90;40.30;;;;;;1576819;74;769;-58
2020/12/27 00:58:52;;;;;;;;;;;23.00;40.30;;;;;;1571558;74;1908;-58
2020/12/27 01:00:54;;;;;;;;;;;22.90;40.20;;;;;;1573948;74;1174;-58
2020/12/27 01:02:56;;;;;;;;;;;23.00;40.20;;;;;;1570568;74;741;-59
2020/12/27 01:04:58;;;;;;;;;;;23.10;40.40;;;;;;1568772;74;921;-59
2020/12/27 01:06:59;;;;;;;;;;;23.00;40.30;;;;;;1573127;74;695;-58
2020/12/27 01:09:01;;;;;;;;;;;23.00;40.30;;;;;;1578333;74;672;-59
2020/12/27 01:11:03;;;;;;;;;;;23.00;40.20;;;;;;1579435;74;1211;-58
2020/12/27 01:13:05;;;;;;;;;;;23.00;40.20;;;;;;1572740;74;703;-58
2020/12/27 01:15:09;;;;;;;;;;;23.00;40.10;;;;;;1578291;74;771;-58
2020/12/27 01:17:11;;;;;;;;;;;23.00;40.10;;;;;;1572330;74;705;-59
2020/12/27 01:19:12;;;;;;;;;;;23.00;40.00;;;;;;1570741;74;1934;-58
2020/12/27 01:21:16;;;;;;;;;;;23.00;40.00;;;;;;1579803;74;1149;-60
2020/12/27 01:23:18;;;;;;;;;;;23.10;40.20;;;;;;1570461;74;1217;-58
2020/12/27 01:25:20;;;;;;;;;;;23.10;40.30;;;;;;1574285;74;1074;-59
2020/12/27 01:27:21;;;;;;;;;;;23.10;40.30;;;;;;1574434;74;780;-59
2020/12/27 01:29:23;;;;;;;;;;;23.10;40.30;;;;;;1582772;74;706;-59
2020/12/27 01:31:25;;;;;;;;;;;23.10;40.30;;;;;;1577824;74;1156;-59
2020/12/27 01:33:27;;;;;;;;;;;23.10;40.30;;;;;;1573592;73;670;-58
2020/12/27 01:35:29;;;;;;;;;;;23.10;40.20;;;;;;1578202;74;676;-58
2020/12/27 01:37:31;;;;;;;;;;;23.10;40.40;;;;;;1572934;74;740;-59
2020/12/27 01:39:33;;;;;;;;;;;23.10;40.30;;;;;;1575845;74;1928;-59
2020/12/27 01:41:35;;;;;;;;;;;23.00;40.30;;;;;;1575955;74;1137;-58
2020/12/27 01:43:37;;;;;;;;;;;23.10;40.30;;;;;;1575545;74;703;-59
2020/12/27 01:45:39;;;;;;;;;;;23.10;40.30;;;;;;1578837;74;705;-58
2020/12/27 01:47:40;;;;;;;;;;;23.10;40.50;;;;;;1578395;74;713;-58
2020/12/27 01:49:43;;;;;;;;;;;23.10;40.40;;;;;;1579196;74;792;-58
2020/12/27 01:51:45;;;;;;;;;;;23.10;40.40;;;;;;1577758;74;1112;-59
2020/12/27 01:53:47;;;;;;;;;;;23.10;40.30;;;;;;1576062;74;724;-58
2020/12/27 01:55:49;;;;;;;;;;;23.10;40.30;;;;;;1576785;74;813;-58
2020/12/27 01:57:52;;;;;;;;;;;23.10;40.40;;;;;;1569168;74;824;-58
2020/12/27 01:59:54;;;;;;;;;;;23.10;40.30;;;;;;1575164;74;1937;-58
2020/12/27 02:01:56;;;;;;;;;;;23.10;40.20;;;;;;1575221;74;1147;-58
2020/12/27 02:03:59;;;;;;;;;;;23.10;40.30;;;;;;1577169;74;750;-58
2020/12/27 02:06:01;;;;;;;;;;;23.10;40.30;;;;;;1536297;77;766;-58
2020/12/27 02:08:03;;;;;;;;;;;23.10;40.40;;;;;;1535416;76;690;-59
2020/12/27 02:10:05;;;;;;;;;;;23.10;40.40;;;;;;1537095;76;859;-58
2020/12/27 02:12:11;;;;;;;;;;;23.10;40.50;;;;;;1538821;76;1138;-58
2020/12/27 02:14:13;;;;;;;;;;;23.10;40.50;;;;;;1539679;76;661;-58
2020/12/27 02:16:16;;;;;;;;;;;23.20;40.50;;;;;;1536305;76;806;-59
2020/12/27 02:18:18;;;;;;;;;;;23.10;40.70;;;;;;1531554;76;789;-58
2020/12/27 02:20:21;;;;;;;;;;;23.10;40.60;;;;;;1536339;76;2084;-59
2020/12/27 02:22:23;;;;;;;;;;;23.10;40.60;;;;;;1529397;77;1131;-58
2020/12/27 02:24:25;;;;;;;;;;;23.10;40.60;;;;;;1533935;76;720;-57
2020/12/27 02:26:27;;;;;;;;;;;23.10;40.60;;;;;;1513878;77;716;-58
2020/12/27 02:28:29;;;;;;;;;;;23.10;40.60;;;;;;1538352;76;739;-59
2020/12/27 02:30:30;;;;;;;;;;;23.10;40.50;;;;;;1541174;76;1206;-58
2020/12/27 02:32:32;;;;;;;;;;;23.10;40.50;;;;;;1542930;76;641;-57
2020/12/27 02:34:34;;;;;;;;;;;23.10;40.60;;;;;;1511345;77;730;-59
2020/12/27 02:36:36;;;;;;;;;;;23.10;40.60;;;;;;1537740;76;701;-58
2020/12/27 02:38:38;;;;;;;;;;;23.10;40.60;;;;;;1536426;76;738;-58
2020/12/27 02:40:43;;;;;;;;;;;23.10;40.60;;;;;;1572096;74;1920;-59
2020/12/27 02:42:45;;;;;;;;;;;23.10;41.00;;;;;;1581789;74;730;-58
2020/12/27 02:47:05;;;;;;;;;;;23.10;41.00;;;;;;1582116;74;668;-58
2020/12/27 02:49:07;;;;;;;;;;;23.10;40.70;;;;;;1587273;74;816;-58
2020/12/27 02:51:10;;;;;;;;;;;23.10;40.70;;;;;;1572038;74;1182;-59
2020/12/27 02:53:12;;;;;;;;;;;23.10;40.80;;;;;;1572837;74;667;-58
2020/12/27 02:55:14;;;;;;;;;;;23.20;40.80;;;;;;1574118;74;729;-58
2020/12/27 02:57:16;;;;;;;;;;;23.20;40.80;;;;;;1580594;74;731;-58
2020/12/27 02:59:19;;;;;;;;;;;23.20;40.80;;;;;;1586197;74;1927;-58
2020/12/27 03:01:21;;;;;;;;;;;23.20;40.70;;;;;;1584016;74;1144;-57
2020/12/27 03:03:23;;;;;;;;;;;23.20;40.60;;;;;;1580210;74;680;-58
2020/12/27 03:05:25;;;;;;;;;;;23.20;40.70;;;;;;1581262;74;730;-58
2020/12/27 03:07:27;;;;;;;;;;;23.20;40.80;;;;;;1572249;74;707;-58
2020/12/27 03:09:29;;;;;;;;;;;23.20;40.80;;;;;;1582181;74;733;-59
2020/12/27 03:11:30;;;;;;;;;;;23.20;40.80;;;;;;1571871;74;1130;-58
2020/12/27 03:13:33;;;;;;;;;;;23.20;40.80;;;;;;1574017;74;726;-58
2020/12/27 03:15:35;;;;;;;;;;;23.20;40.70;;;;;;1574043;74;694;-58
2020/12/27 03:17:37;;;;;;;;;;;23.20;40.60;;;;;;1578279;74;773;-59
2020/12/27 03:19:39;;;;;;;;;;;23.30;40.80;;;;;;1579903;74;1924;-58
2020/12/27 03:21:41;;;;;;;;;;;23.20;40.70;;;;;;1575635;74;1114;-58
2020/12/27 03:23:42;;;;;;;;;;;23.20;40.70;;;;;;1581981;75;713;-58
2020/12/27 03:25:44;;;;;;;;;;;23.20;40.70;;;;;;1577707;75;710;-58
2020/12/27 03:27:46;;;;;;;;;;;23.30;40.70;;;;;;1583791;75;758;-58
2020/12/27 03:29:48;;;;;;;;;;;23.20;40.70;;;;;;1570438;75;772;-60
2020/12/27 03:31:50;;;;;;;;;;;23.20;40.70;;;;;;1567473;75;1193;-58
2020/12/27 03:33:52;;;;;;;;;;;23.30;40.70;;;;;;1575260;75;663;-59
2020/12/27 03:35:54;;;;;;;;;;;23.20;40.60;;;;;;1570516;75;694;-58
2020/12/27 03:37:55;;;;;;;;;;;23.20;40.70;;;;;;1583980;74;735;-58
2020/12/27 03:39:57;;;;;;;;;;;23.20;40.70;;;;;;1569193;74;1943;-58
2020/12/27 03:41:59;;;;;;;;;;;23.20;40.80;;;;;;1570547;75;1097;-58
2020/12/27 03:44:01;;;;;;;;;;;23.20;40.70;;;;;;1573056;75;736;-58
2020/12/27 03:46:03;;;;;;;;;;;23.20;40.80;;;;;;1566002;75;683;-58
2020/12/27 03:48:05;;;;;;;;;;;23.20;40.80;;;;;;1577875;75;709;-58
2020/12/27 03:50:07;;;;;;;;;;;23.20;40.90;;;;;;1577674;75;713;-59
2020/12/27 03:52:08;;;;;;;;;;;23.20;40.80;;;;;;1583124;75;1060;-58
2020/12/27 03:54:10;;;;;;;;;;;23.20;40.80;;;;;;1564603;75;735;-58
2020/12/27 03:56:12;;;;;;;;;;;23.20;40.80;;;;;;1579826;75;691;-58
2020/12/27 03:58:14;;;;;;;;;;;23.20;40.80;;;;;;1574373;75;706;-59
2020/12/27 04:00:16;;;;;;;;;;;23.20;40.80;;;;;;1564900;75;1926;-59
2020/12/27 04:02:18;;;;;;;;;;;23.20;40.70;;;;;;1575111;73;1089;-59
2020/12/27 04:04:20;;;;;;;;;;;23.30;40.80;;;;;;1575543;75;803;-58
2020/12/27 04:06:22;;;;;;;;;;;23.20;40.80;;;;;;1581158;75;771;-58
2020/12/27 04:08:24;;;;;;;;;;;23.10;40.70;;;;;;1573779;75;698;-58
2020/12/27 04:10:25;;;;;;;;;;;23.20;40.80;;;;;;1569855;75;1141;-58
2020/12/27 04:12:27;;;;;;;;;;;23.20;40.80;;;;;;1574262;75;637;-58
2020/12/27 04:14:29;;;;;;;;;;;23.10;40.80;;;;;;1566332;75;686;-58
2020/12/27 04:16:31;;;;;;;;;;;23.10;40.80;;;;;;1575932;75;753;-58
2020/12/27 04:18:33;;;;;;;;;;;23.10;40.80;;;;;;1575274;75;779;-58
2020/12/27 04:20:35;;;;;;;;;;;23.20;40.80;;;;;;1576847;75;1938;-58
2020/12/27 04:22:37;;;;;;;;;;;23.20;40.70;;;;;;1572173;73;1078;-58
2020/12/27 04:24:38;;;;;;;;;;;23.10;40.70;;;;;;1567924;75;699;-59
2020/12/27 04:26:40;;;;;;;;;;;23.20;40.70;;;;;;1576615;74;789;-58
2020/12/27 04:28:42;;;;;;;;;;;23.10;40.60;;;;;;1566789;75;731;-58
2020/12/27 04:30:44;;;;;;;;;;;23.10;40.50;;;;;;1575815;75;1222;-58
2020/12/27 04:32:46;;;;;;;;;;;23.10;40.60;;;;;;1567701;75;835;-59
2020/12/27 04:34:48;;;;;;;;;;;23.10;40.70;;;;;;1575180;75;728;-59
2020/12/27 04:36:50;;;;;;;;;;;23.10;40.70;;;;;;1562574;75;712;-58
2020/12/27 04:38:52;;;;;;;;;;;23.10;40.80;;;;;;1580996;75;705;-58
2020/12/27 04:40:54;;;;;;;;;;;23.00;40.90;;;;;;1567827;73;1941;-59
2020/12/27 04:42:56;;;;;;;;;;;23.10;41.00;;;;;;1571691;75;791;-58
2020/12/27 04:44:57;;;;;;;;;;;23.10;41.00;;;;;;1567164;75;694;-58
2020/12/27 04:46:59;;;;;;;;;;;23.10;40.90;;;;;;1568678;75;747;-58
2020/12/27 04:49:02;;;;;;;;;;;23.10;40.80;;;;;;1565085;75;694;-58
2020/12/27 04:51:04;;;;;;;;;;;23.10;40.80;;;;;;1566295;75;1193;-59
2020/12/27 04:53:06;;;;;;;;;;;23.10;40.80;;;;;;1577841;74;773;-59
2020/12/27 04:55:08;;;;;;;;;;;23.10;40.70;;;;;;1574556;75;721;-58
2020/12/27 04:57:09;;;;;;;;;;;23.10;40.70;;;;;;1576231;73;670;-58
2020/12/27 04:59:11;;;;;;;;;;;23.10;40.80;;;;;;1579408;74;842;-58
2020/12/27 05:01:13;;;;;;;;;;;23.10;40.70;;;;;;1577729;75;1940;-59
2020/12/27 05:03:15;;;;;;;;;;;23.10;40.70;;;;;;1569443;74;727;-58
2020/12/27 05:05:17;;;;;;;;;;;23.10;40.70;;;;;;1578670;75;728;-58
2020/12/27 05:07:21;;;;;;;;;;;23.10;40.80;;;;;;1563566;75;827;-59
2020/12/27 05:09:26;;;;;;;;;;;23.10;40.70;;;;;;1569176;74;825;-59
2020/12/27 05:11:28;;;;;;;;;;;23.10;40.70;;;;;;1578985;74;1142;-58
2020/12/27 05:13:31;;;;;;;;;;;23.10;40.70;;;;;;1566819;74;654;-59
2020/12/27 05:15:34;;;;;;;;;;;23.10;40.80;;;;;;1565771;75;719;-59
2020/12/27 05:17:36;;;;;;;;;;;23.10;40.70;;;;;;1569971;75;683;-59
2020/12/27 05:19:38;;;;;;;;;;;23.10;40.60;;;;;;1577962;75;876;-59
2020/12/27 05:21:40;;;;;;;;;;;23.10;40.60;;;;;;1577178;75;1942;-59
2020/12/27 05:23:42;;;;;;;;;;;23.10;40.60;;;;;;1579044;74;1218;-58
2020/12/27 05:25:44;;;;;;;;;;;23.20;40.60;;;;;;1565473;75;1070;-59
2020/12/27 05:27:45;;;;;;;;;;;23.10;40.60;;;;;;1579050;74;824;-59
2020/12/27 05:29:47;;;;;;;;;;;23.10;40.60;;;;;;1578493;74;737;-59
2020/12/27 05:31:49;;;;;;;;;;;23.10;40.60;;;;;;1569118;74;1140;-58
2020/12/27 05:33:51;;;;;;;;;;;23.20;40.60;;;;;;1581177;74;688;-58
2020/12/27 05:36:02;;;;;;;;;;;23.20;40.70;;;;;;1573835;74;739;-58
2020/12/27 05:38:03;;;;;;;;;;;23.20;40.60;;;;;;1570667;74;785;-58
2020/12/27 05:40:06;;;;;;;;;;;23.10;40.60;;;;;;1563973;75;1935;-58
2020/12/27 05:42:08;;;;;;;;;;;23.20;40.60;;;;;;1580745;74;1041;-59
2020/12/27 05:44:10;;;;;;;;;;;23.20;40.60;;;;;;1574780;74;874;-58
2020/12/27 05:46:12;;;;;;;;;;;23.10;40.60;;;;;;1580186;74;717;-58
2020/12/27 05:48:13;;;;;;;;;;;23.20;40.50;;;;;;1560119;75;1150;-58
2020/12/27 05:50:16;;;;;;;;;;;23.20;40.60;;;;;;1587509;74;814;-57
2020/12/27 05:52:19;;;;;;;;;;;23.20;40.50;;;;;;1589140;74;1146;-58
2020/12/27 05:54:33;;;;;;;;;;;23.30;40.50;;;;;;1581390;74;835;-57
2020/12/27 05:56:35;;;;;;;;;;;23.20;40.50;;;;;;1579809;74;770;-58
2020/12/27 05:58:36;;;;;;;;;;;23.30;40.50;;;;;;1580693;74;793;-58
2020/12/27 06:00:38;;;;;;;;;;;23.20;40.40;;;;;;1561080;74;1945;-58
2020/12/27 06:02:43;;;;;;;;;;;23.20;40.50;;;;;;1557584;75;725;-59
2020/12/27 06:05:02;;;;;;;;;;;23.20;40.50;;;;;;1580265;74;696;-59
2020/12/27 06:07:06;;;;;;;;;;;23.20;40.50;;;;;;1576274;74;781;-59
2020/12/27 06:09:08;;;;;;;;;;;23.20;40.60;;;;;;1574936;74;1021;-58
2020/12/27 06:11:12;;;;;;;;;;;23.10;40.50;;;;;;1583579;74;1155;-59
2020/12/27 06:13:15;;;;;;;;;;;23.20;40.60;;;;;;1577880;74;1624;-58
2020/12/27 06:15:25;;;;;;;;;;;23.20;40.50;;;;;;1572879;74;1635;-59
2020/12/27 06:17:29;;;;;;;;;;;23.20;40.50;;;;;;1582405;74;729;-57
2020/12/27 06:19:32;;;;;;;;;;;23.20;40.50;;;;;;1571645;74;2286;-59
2020/12/27 06:21:34;;;;;;;;;;;23.20;40.50;;;;;;1580520;74;1922;-58
2020/12/27 06:23:36;;;;;;;;;;;23.20;40.50;;;;;;1574281;74;1101;-59
2020/12/27 06:25:39;;;;;;;;;;;23.20;40.40;;;;;;1576677;75;693;-58
2020/12/27 06:27:40;;;;;;;;;;;23.20;40.40;;;;;;1570121;75;793;-58
2020/12/27 06:29:44;;;;;;;;;;;23.20;40.50;;;;;;1578782;75;761;-59
2020/12/27 06:31:47;;;;;;;;;;;23.20;40.40;;;;;;1571466;75;1218;-58
2020/12/27 06:33:48;;;;;;;;;;;23.20;40.50;;;;;;1568021;75;616;-58
2020/12/27 06:35:50;;;;;;;;;;;23.20;40.40;;;;;;1577238;75;750;-58
2020/12/27 06:37:52;;;;;;;;;;;23.20;40.30;;;;;;1571948;75;726;-57
2020/12/27 06:39:54;;;;;;;;;;;23.30;40.30;;;;;;1577586;75;803;-58
2020/12/27 06:42:15;;;;;;;;;;;23.20;40.20;;;;;;1576830;75;1927;-58
2020/12/27 06:44:18;;;;;;;;;;;23.30;40.30;;;;;;1574914;75;719;-60
2020/12/27 06:46:21;;;;;;;;;;;23.20;40.20;;;;;;1572875;74;1636;-58
2020/12/27 06:48:35;;;;;;;;;;;23.30;40.40;;;;;;1564500;75;586;-58
2020/12/27 06:50:43;;;;;;;;;;;23.20;40.30;;;;;;1567757;75;1157;-58
2020/12/27 06:52:45;;;;;;;;;;;23.20;40.50;;;;;;1577190;75;708;-57
2020/12/27 06:54:48;;;;;;;;;;;23.20;40.50;;;;;;1563716;75;674;-58
2020/12/27 06:56:53;;;;;;;;;;;23.20;40.50;;;;;;1574251;75;808;-57
2020/12/27 06:59:03;;;;;;;;;;;23.30;40.60;;;;;;1569132;75;1658;-59
2020/12/27 07:01:15;;;;;;;;;;;23.20;40.50;;;;;;1575139;75;1958;-59
2020/12/27 07:03:18;;;;;;;;;;;23.20;40.50;;;;;;1568837;75;897;-59
2020/12/27 07:05:27;;;;;;;;;;;23.20;40.50;;;;;;1569225;74;772;-59
2020/12/27 07:07:45;;;;;;;;;;;23.30;40.60;;;;;;1570604;75;642;-60
2020/12/27 07:09:47;;;;;;;;;;;23.20;40.50;;;;;;1569778;75;733;-59
2020/12/27 07:11:50;;;;;;;;;;;23.20;40.50;;;;;;1540118;76;1191;-59
2020/12/27 07:13:55;;;;;;;;;;;23.20;40.50;;;;;;1556604;73;1046;-57
2020/12/27 07:15:59;;;;;;;;;;;23.20;40.40;;;;;;1565835;75;760;-58
2020/12/27 07:18:02;;;;;;;;;;;23.20;40.40;;;;;;1578636;74;767;-59
2020/12/27 07:20:15;;;;;;;;;;;23.20;40.50;;;;;;1570081;74;1003;-59
2020/12/27 07:22:11;;;;;;;;;;;23.20;40.40;;;;;;1572543;74;1903;-59
2020/12/27 07:24:14;;;;;;;;;;;23.20;40.40;;;;;;1576989;74;1126;-58
2020/12/27 07:26:16;;;;;;;;;;;23.20;40.30;;;;;;1563858;75;730;-59
2020/12/27 07:28:19;;;;;;;;;;;23.20;40.30;;;;;;1571705;74;711;-60
2020/12/27 07:30:20;;;;;;;;;;;23.20;40.20;;;;;;1572179;75;717;-59
2020/12/27 07:32:23;;;;;;;;;;;23.20;40.20;;;;;;1579650;75;1174;-58
2020/12/27 07:34:26;;;;;;;;;;;23.20;40.20;;;;;;1567967;75;786;-59
2020/12/27 07:36:28;;;;;;;;;;;23.20;40.20;;;;;;1576638;75;726;-58
2020/12/27 07:38:47;;;;;;;;;;;23.20;40.20;;;;;;1575538;75;696;-59
2020/12/27 07:40:49;;;;;;;;;;;23.20;40.20;;;;;;1583436;74;1956;-58
2020/12/27 07:42:50;;;;;;;;;;;23.20;40.20;;;;;;1550625;75;798;-59
2020/12/27 07:44:52;;;;;;;;;;;23.30;40.40;;;;;;1577009;75;712;-60
2020/12/27 07:46:54;;;;;;;;;;;23.20;40.30;;;;;;1574065;75;707;-59
2020/12/27 07:48:56;;;;;;;;;;;23.20;40.30;;;;;;1566766;75;657;-59
2020/12/27 07:51:00;;;;;;;;;;;23.30;40.30;;;;;;1563913;75;1241;-61
2020/12/27 07:53:02;;;;;;;;;;;23.30;40.40;;;;;;1567832;75;1751;-60
2020/12/27 07:55:04;;;;;;;;;;;23.30;40.20;;;;;;1567466;75;709;-58
2020/12/27 07:57:07;;;;;;;;;;;23.30;40.20;;;;;;1565245;75;689;-58
2020/12/27 07:59:09;;;;;;;;;;;23.40;40.20;;;;;;1568179;74;1524;-58
2020/12/27 08:01:13;;;;;;;;;;;23.30;40.20;;;;;;1568665;74;1942;-57
2020/12/27 08:03:14;;;;;;;;;;;23.40;40.20;;;;;;1566944;74;1993;-58
2020/12/27 08:05:16;;;;;;;;;;;23.40;40.20;;;;;;1565912;75;687;-57
2020/12/27 08:07:20;;;;;;;;;;;23.40;40.20;;;;;;1565294;75;747;-60
2020/12/27 08:09:22;;;;;;;;;;;23.40;40.20;;;;;;1566734;74;1499;-59
2020/12/27 08:11:24;;;;;;;;;;;23.40;40.20;;;;;;1563702;75;1160;-59
2020/12/27 08:13:26;;;;;;;;;;;23.40;40.20;;;;;;1578570;74;717;-60
2020/12/27 08:15:28;;;;;;;;;;;23.40;40.40;;;;;;1573676;74;779;-59
2020/12/27 08:17:30;;;;;;;;;;;23.40;40.20;;;;;;1568538;74;714;-58
2020/12/27 08:19:32;;;;;;;;;;;23.30;40.50;;;;;;1568593;74;682;-59
2020/12/27 08:21:34;;;;;;;;;;;23.40;40.50;;;;;;1573366;74;1941;-58
2020/12/27 08:23:36;;;;;;;;;;;23.30;40.50;;;;;;1572292;75;772;-59
2020/12/27 08:25:38;;;;;;;;;;;23.30;40.40;;;;;;1571619;74;1092;-58
2020/12/27 08:27:40;;;;;;;;;;;23.40;40.40;;;;;;1579967;75;801;-58
2020/12/27 08:29:42;;;;;;;;;;;23.40;40.50;;;;;;1573416;73;809;-58
2020/12/27 08:31:45;;;;;;;;;;;23.30;40.40;;;;;;1568368;75;1189;-59
2020/12/27 08:33:46;;;;;;;;;;;23.40;40.30;;;;;;1575790;75;814;-59
2020/12/27 08:35:49;;;;;;;;;;;23.40;40.30;;;;;;1576738;75;700;-59
2020/12/27 08:37:52;;;;;;;;;;;23.40;40.30;;;;;;1571071;75;746;-57
2020/12/27 08:39:55;;;;;;;;;;;23.40;40.30;;;;;;1573362;74;989;-58
2020/12/27 08:42:06;;;;;;;;;;;23.30;40.30;;;;;;1576922;74;1956;-59
2020/12/27 08:44:10;;;;;;;;;;;23.30;40.20;;;;;;1573884;75;2101;-58
2020/12/27 08:46:13;;;;;;;;;;;23.30;40.40;;;;;;1576834;75;739;-59
2020/12/27 08:48:16;;;;;;;;;;;23.30;40.30;;;;;;1582316;74;713;-59
2020/12/27 08:50:20;;;;;;;;;;;23.30;40.30;;;;;;1568413;74;1727;-59
2020/12/27 08:52:23;;;;;;;;;;;23.30;40.30;;;;;;1564864;75;1178;-58
2020/12/27 08:54:24;;;;;;;;;;;23.30;40.30;;;;;;1581287;74;781;-57
2020/12/27 08:56:28;;;;;;;;;;;23.30;40.20;;;;;;1570670;75;788;-58
2020/12/27 08:58:30;;;;;;;;;;;23.30;40.30;;;;;;1573590;75;1131;-58
2020/12/27 09:00:35;;;;;;;;;;;23.20;40.20;;;;;;1566359;75;1140;-59
2020/12/27 09:02:37;;;;;;;;;;;23.20;40.20;;;;;;1570162;75;1923;-58
2020/12/27 09:04:40;;;;;;;;;;;23.20;40.20;;;;;;1564394;75;766;-58
2020/12/27 09:06:45;;;;;;;;;;;23.20;40.20;;;;;;1540110;76;783;-58
2020/12/27 09:08:48;;;;;;;;;;;23.20;40.20;;;;;;1527827;77;1771;-59
2020/12/27 09:10:51;;;;;;;;;;;23.30;40.50;;;;;;1494578;78;1223;-58
2020/12/27 09:13:00;;;;;;;;;;;23.20;40.20;;;;;;1526463;76;741;-58
2020/12/27 09:15:02;;;;;;;;;;;23.30;40.30;;;;;;1528035;77;705;-58
2020/12/27 09:17:07;;;;;;;;;;;23.20;40.20;;;;;;1521011;77;1087;-58
2020/12/27 09:19:10;;;;;;;;;;;23.30;40.20;;;;;;1529793;77;690;-59
2020/12/27 09:21:12;;;;;;;;;;;23.30;40.10;;;;;;1565156;74;1121;-58
2020/12/27 09:23:20;;;;;;;;;;;23.30;40.10;;;;;;1566743;75;1954;-58
2020/12/27 09:25:23;;;;;;;;;;;23.30;40.00;;;;;;1572627;75;1149;-58
2020/12/27 09:27:25;;;;;;;;;;;23.30;40.00;;;;;;1576758;75;666;-59
2020/12/27 09:29:27;;;;;;;;;;;23.30;40.10;;;;;;1569310;75;1115;-58
2020/12/27 09:31:29;;;;;;;;;;;23.30;40.00;;;;;;1574000;74;1196;-58
2020/12/27 09:33:31;;;;;;;;;;;23.30;39.90;;;;;;1573027;75;652;-59
2020/12/27 09:35:33;;;;;;;;;;;23.40;39.70;;;;;;1575036;74;689;-59
2020/12/27 09:37:35;;;;;;;;;;;23.40;39.60;;;;;;1565611;75;664;-58
2020/12/27 09:39:37;;;;;;;;;;;23.40;39.40;;;;;;1578505;75;796;-58
2020/12/27 09:41:39;;;;;;;;;;;23.30;39.30;;;;;;1572192;75;1923;-59
2020/12/27 09:43:53;;;;;;;;;;;23.40;39.20;;;;;;1567606;75;719;-57
2020/12/27 09:45:54;;;;;;;;;;;23.40;39.10;;;;;;1568176;75;665;-58
2020/12/27 09:47:57;;;;;;;;;;;23.40;39.00;;;;;;1570622;75;662;-58
2020/12/27 09:49:59;;;;;;;;;;;23.40;39.00;;;;;;1566388;75;583;-57
2020/12/27 09:52:15;;;;;;;;;;;23.40;38.90;;;;;;1570108;75;1153;-57
2020/12/27 09:54:17;;;;;;;;;;;23.40;38.90;;;;;;1572504;75;846;-59
2020/12/27 09:56:19;;;;;;;;;;;23.40;38.90;;;;;;1566806;75;719;-58
2020/12/27 09:58:21;;;;;;;;;;;23.40;38.70;;;;;;1565816;75;655;-59
2020/12/27 10:00:23;;;;;;;;;;;23.40;38.70;;;;;;1563928;75;663;-60
2020/12/27 10:02:25;;;;;;;;;;;23.30;38.50;;;;;;1569801;75;1953;-58
2020/12/27 10:04:27;;;;;;;;;;;23.40;38.50;;;;;;1571434;75;767;-58
2020/12/27 10:06:30;;;;;;;;;;;23.30;38.40;;;;;;1564266;74;823;-59
2020/12/27 10:08:32;;;;;;;;;;;23.30;38.40;;;;;;1570686;74;663;-59
2020/12/27 10:10:34;;;;;;;;;;;23.30;38.40;;;;;;1578739;73;1165;-59
2020/12/27 10:12:36;;;;;;;;;;;23.30;38.10;;;;;;1583833;75;789;-58
2020/12/27 10:14:38;;;;;;;;;;;23.20;38.10;;;;;;1578044;75;783;-58
2020/12/27 10:16:40;;;;;;;;;;;23.20;38.10;;;;;;1572849;75;793;-58
2020/12/27 10:18:42;;;;;;;;;;;23.30;38.10;;;;;;1580582;74;769;-59
2020/12/27 10:20:45;;;;;;;;;;;23.20;37.90;;;;;;1572984;75;1155;-58
2020/12/27 10:22:48;;;;;;;;;;;23.20;37.90;;;;;;1569376;75;1922;-58
2020/12/27 10:24:50;;;;;;;;;;;23.20;37.80;;;;;;1565843;74;861;-58
2020/12/27 10:26:52;;;;;;;;;;;23.20;37.70;;;;;;1577697;74;1440;-58
2020/12/27 10:28:54;;;;;;;;;;;23.20;37.80;;;;;;1577613;74;796;-58
2020/12/27 10:30:56;;;;;;;;;;;23.20;37.60;;;;;;1580395;74;1180;-58
2020/12/27 10:32:58;;;;;;;;;;;23.20;37.60;;;;;;1578501;74;718;-56
2020/12/27 10:35:00;;;;;;;;;;;23.20;37.60;;;;;;1575821;74;804;-59
2020/12/27 10:37:02;;;;;;;;;;;23.10;37.60;;;;;;1580731;74;772;-58
2020/12/27 10:39:04;;;;;;;;;;;23.10;37.60;;;;;;1584258;74;773;-58
2020/12/27 10:41:07;;;;;;;;;;;23.20;37.40;;;;;;1579571;74;1190;-58
2020/12/27 10:43:09;;;;;;;;;;;23.20;37.60;;;;;;1574858;74;1900;-57
2020/12/27 10:45:10;;;;;;;;;;;23.10;37.50;;;;;;1581318;74;1079;-58
2020/12/27 10:47:12;;;;;;;;;;;23.20;37.90;;;;;;1576381;74;741;-58
2020/12/27 10:49:14;;;;;;;;;;;23.10;37.60;;;;;;1585397;74;692;-57
2020/12/27 10:51:16;;;;;;;;;;;23.20;36.80;;;;;;1579230;74;1164;-58
2020/12/27 10:53:18;;;;;;;;;;;23.10;36.30;;;;;;1575010;74;762;-58
2020/12/27 10:55:20;;;;;;;;;;;23.20;35.80;;;;;;1584096;74;825;-59
2020/12/27 10:57:22;;;;;;;;;;;23.10;35.00;;;;;;1597279;74;680;-59
2020/12/27 10:59:23;;;;;;;;;;;23.10;34.50;;;;;;1586526;74;701;-58
2020/12/27 11:01:26;;;;;;;;;;;23.10;34.20;;;;;;1579546;74;1149;-58
2020/12/27 11:03:28;;;;;;;;;;;23.10;33.60;;;;;;1580609;74;1930;-59
2020/12/27 11:05:30;;;;;;;;;;;23.00;32.60;;;;;;1582735;74;764;-59
2020/12/27 11:07:34;;;;;;;;;;;23.00;32.80;;;;;;1590134;74;749;-59
2020/12/27 11:09:37;;;;;;;;;;;23.00;32.70;;;;;;1589252;74;2530;-59
2020/12/27 11:11:40;;;;;;;;;;;23.00;32.70;;;;;;1576729;74;1105;-59
2020/12/27 11:13:42;;;;;;;;;;;22.90;32.70;;;;;;1583378;74;706;-59
2020/12/27 11:15:44;;;;;;;;;;;22.90;32.60;;;;;;1579287;74;799;-58
2020/12/27 11:17:46;;;;;;;;;;;22.90;32.60;;;;;;1579254;74;751;-59
2020/12/27 11:19:48;;;;;;;;;;;22.90;33.40;;;;;;1584230;74;722;-58
2020/12/27 11:21:50;;;;;;;;;;;22.90;33.10;;;;;;1576910;74;1149;-59
2020/12/27 11:23:52;;;;;;;;;;;22.80;33.50;;;;;;1575756;74;1899;-59
2020/12/27 11:25:53;;;;;;;;;;;22.80;33.70;;;;;;1588251;74;686;-59
2020/12/27 11:27:55;;;;;;;;;;;22.90;34.00;;;;;;1566819;74;1047;-59
2020/12/27 11:29:57;;;;;;;;;;;22.80;34.40;;;;;;1577134;74;731;-59
2020/12/27 11:31:59;;;;;;;;;;;22.80;34.70;;;;;;1566976;74;1178;-60
2020/12/27 11:34:01;;;;;;;;;;;22.80;35.00;;;;;;1570123;74;770;-59
2020/12/27 11:36:03;;;;;;;;;;;22.80;35.40;;;;;;1564673;75;719;-59
2020/12/27 11:38:07;;;;;;;;;;;22.80;35.60;;;;;;1566533;74;671;-59
2020/12/27 11:40:08;;;;;;;;;;;22.80;36.00;;;;;;1575782;75;1623;-58
2020/12/27 11:42:10;;;;;;;;;;;22.80;36.40;;;;;;1566607;75;1955;-58
2020/12/27 11:44:12;;;;;;;;;;;22.80;36.30;;;;;;1572507;75;705;-58
2020/12/27 11:46:14;;;;;;;;;;;22.80;36.40;;;;;;1574832;73;790;-57
2020/12/27 11:48:16;;;;;;;;;;;22.90;36.40;;;;;;1567923;75;843;-58
2020/12/27 11:50:17;;;;;;;;;;;22.90;36.20;;;;;;1578683;74;694;-57
2020/12/27 11:52:24;;;;;;;;;;;23.00;36.00;;;;;;1569301;74;1115;-58
2020/12/27 11:54:23;;;;;;;;;;;23.00;35.90;;;;;;1572605;75;1552;-58
2020/12/27 11:56:25;;;;;;;;;;;23.00;35.80;;;;;;1566656;75;811;-57
2020/12/27 11:58:27;;;;;;;;;;;23.10;35.80;;;;;;1569413;74;796;-58
2020/12/27 12:00:31;;;;;;;;;;;23.10;35.80;;;;;;1568601;74;1122;-57
2020/12/27 12:02:32;;;;;;;;;;;23.00;35.70;;;;;;1567470;75;1934;-58
2020/12/27 12:04:34;;;;;;;;;;;23.00;35.80;;;;;;1573471;75;673;-58
2020/12/27 12:06:36;;;;;;;;;;;23.00;35.70;;;;;;1572783;75;734;-58
2020/12/27 12:08:38;;;;;;;;;;;23.00;35.70;;;;;;1566427;75;888;-58
2020/12/27 12:10:39;;;;;;;;;;;23.10;35.70;;;;;;1549509;75;1292;-58
2020/12/27 12:12:41;;;;;;;;;;;23.00;35.60;;;;;;1574969;75;576;-58
2020/12/27 12:14:43;;;;;;;;;;;23.10;35.60;;;;;;1572796;75;714;-58